createdAt,value
2023-05-05T00:00:55.301Z,64.84
2023-05-05T00:03:41.636Z,65.38
2023-05-05T00:06:28.476Z,64.99
2023-05-05T00:09:14.378Z,66.39
2023-05-05T00:12:00.036Z,65.77
2023-05-05T00:14:45.382Z,65.85
2023-05-05T00:17:30.868Z,66.00
2023-05-05T00:20:16.207Z,65.97
2023-05-05T00:23:01.748Z,65.68
2023-05-05T00:25:47.055Z,66.01
2023-05-05T00:28:32.605Z,65.81
2023-05-05T00:31:18.244Z,65.75
2023-05-05T00:34:04.014Z,66.08
2023-05-05T00:36:49.633Z,66.44
2023-05-05T00:39:35.205Z,66.34
2023-05-05T00:42:20.529Z,66.36
2023-05-05T00:45:06.505Z,66.19
2023-05-05T00:47:55.858Z,66.30
2023-05-05T00:50:43.199Z,66.51
2023-05-05T00:53:28.916Z,66.47
2023-05-05T00:56:16.879Z,66.51
2023-05-05T00:59:03.879Z,66.18
2023-05-05T01:01:50.779Z,66.72
2023-05-05T01:04:36.219Z,66.33
2023-05-05T01:07:43.362Z,66.55
2023-05-05T01:10:31.739Z,67.23
2023-05-05T01:13:39.885Z,67.15
2023-05-05T01:16:28.802Z,67.02
2023-05-05T01:19:45.466Z,67.02
2023-05-05T01:22:39.492Z,66.75
2023-05-05T01:26:00.726Z,67.04
2023-05-05T01:29:08.092Z,67.08
2023-05-05T01:31:57.670Z,66.96
2023-05-05T01:34:53.990Z,67.08
2023-05-05T01:37:49.415Z,67.14
2023-05-05T01:40:42.425Z,67.26
2023-05-05T01:43:30.863Z,67.28
2023-05-05T01:46:19.333Z,67.46
2023-05-05T01:49:06.674Z,67.54
2023-05-05T01:51:53.458Z,67.56
2023-05-05T01:54:41.095Z,67.96
2023-05-05T01:57:29.499Z,67.70
2023-05-05T02:00:18.030Z,68.09
2023-05-05T02:03:05.105Z,67.48
2023-05-05T02:05:52.506Z,68.05
2023-05-05T02:08:39.577Z,67.57
2023-05-05T02:11:28.115Z,68.00
2023-05-05T02:14:17.033Z,67.79
2023-05-05T02:17:04.157Z,68.22
2023-05-05T02:19:52.415Z,68.10
2023-05-05T02:22:38.186Z,67.81
2023-05-05T02:25:32.361Z,68.06
2023-05-05T02:28:49.407Z,68.69
2023-05-05T02:31:44.085Z,68.38
2023-05-05T02:34:36.774Z,68.08
2023-05-05T02:37:29.810Z,69.02
2023-05-05T02:40:22.766Z,68.41
2023-05-05T02:43:11.833Z,68.40
2023-05-05T02:46:21.929Z,68.23
2023-05-05T02:49:07.739Z,68.07
2023-05-05T02:51:54.846Z,68.30
2023-05-05T02:54:44.686Z,68.94
2023-05-05T02:57:45.100Z,68.65
2023-05-05T03:01:07.360Z,68.94
2023-05-05T03:04:04.541Z,68.64
2023-05-05T03:06:58.578Z,68.48
2023-05-05T03:10:03.249Z,68.70
2023-05-05T03:12:55.192Z,69.05
2023-05-05T03:15:49.674Z,69.50
2023-05-05T03:18:38.923Z,69.19
2023-05-05T03:21:24.835Z,69.23
2023-05-05T03:24:20.712Z,69.21
2023-05-05T03:27:14.345Z,69.27
2023-05-05T03:30:00.547Z,69.59
2023-05-05T03:32:46.532Z,69.82
2023-05-05T03:35:32.521Z,69.83
2023-05-05T03:38:18.072Z,69.54
2023-05-05T03:41:04.439Z,69.70
2023-05-05T03:43:51.447Z,70.02
2023-05-05T03:46:37.521Z,69.98
2023-05-05T03:49:25.578Z,69.78
2023-05-05T03:52:13.250Z,69.48
2023-05-05T03:55:00.346Z,69.63
2023-05-05T03:57:46.211Z,69.84
2023-05-05T04:00:32.134Z,69.61
2023-05-05T04:03:18.249Z,69.51
2023-05-05T04:06:04.256Z,69.58
2023-05-05T04:08:50.807Z,69.92
2023-05-05T04:11:36.361Z,70.21
2023-05-05T04:14:22.346Z,70.04
2023-05-05T04:17:08.000Z,69.85
2023-05-05T04:19:54.318Z,70.05
2023-05-05T04:22:39.715Z,70.30
2023-05-05T04:25:25.236Z,70.07
2023-05-05T04:28:10.911Z,70.81
2023-05-05T04:30:56.682Z,70.26
2023-05-05T04:33:42.691Z,70.44
2023-05-05T04:36:28.849Z,70.67
2023-05-05T04:39:14.351Z,70.97
2023-05-05T04:41:59.764Z,71.52
2023-05-05T04:44:45.594Z,70.89
2023-05-05T04:47:30.994Z,71.37
2023-05-05T04:50:16.648Z,71.68
2023-05-05T04:53:02.902Z,71.64
2023-05-05T04:55:48.801Z,71.65
2023-05-05T04:58:34.182Z,72.03
2023-05-05T05:01:19.849Z,72.06
2023-05-05T05:04:05.730Z,72.28
2023-05-05T05:06:51.691Z,72.07
2023-05-05T05:09:37.847Z,71.82
2023-05-05T05:12:23.480Z,72.19
2023-05-05T05:15:10.182Z,71.83
2023-05-05T05:17:55.880Z,71.29
2023-05-05T05:20:41.491Z,71.29
2023-05-05T05:23:27.584Z,71.60
2023-05-05T05:26:12.845Z,70.90
2023-05-05T05:28:58.350Z,71.03
2023-05-05T05:31:43.968Z,71.01
2023-05-05T05:34:29.381Z,70.76
2023-05-05T05:37:16.018Z,70.31
2023-05-05T05:40:02.044Z,70.48
2023-05-05T05:42:49.821Z,70.25
2023-05-05T05:45:36.033Z,70.30
2023-05-05T05:48:24.910Z,70.16
2023-05-05T05:51:11.208Z,70.30
2023-05-05T05:53:58.752Z,70.06
2023-05-05T05:56:44.784Z,69.66
2023-05-05T05:59:30.109Z,69.63
2023-05-05T06:02:16.471Z,68.93
2023-05-05T06:05:01.735Z,68.56
2023-05-05T06:07:47.238Z,68.28
2023-05-05T06:10:33.710Z,67.83
2023-05-05T06:13:24.408Z,67.86
2023-05-05T06:16:11.719Z,67.87
2023-05-05T06:18:59.559Z,66.87
2023-05-05T06:21:45.089Z,66.42
2023-05-05T06:24:32.207Z,65.99
2023-05-05T06:27:19.304Z,66.20
2023-05-05T06:30:05.525Z,65.77
2023-05-05T06:32:51.178Z,65.87
2023-05-05T06:35:37.166Z,65.25
2023-05-05T06:38:22.776Z,64.90
2023-05-05T06:41:08.287Z,64.59
2023-05-05T06:43:53.526Z,64.20
2023-05-05T06:46:38.811Z,64.06
2023-05-05T06:49:24.479Z,63.18
2023-05-05T06:52:09.846Z,62.87
2023-05-05T06:54:55.232Z,61.89
2023-05-05T06:57:40.921Z,61.64
2023-05-05T07:00:26.565Z,61.21
2023-05-05T07:03:11.975Z,61.22
2023-05-05T07:05:57.783Z,61.14
2023-05-05T07:08:43.196Z,61.22
2023-05-05T07:11:28.656Z,60.74
2023-05-05T07:14:14.089Z,60.20
2023-05-05T07:16:59.478Z,60.27
2023-05-05T07:19:45.211Z,60.16
2023-05-05T07:22:30.440Z,59.95
2023-05-05T07:25:16.259Z,59.91
2023-05-05T07:28:02.261Z,59.16
2023-05-05T07:30:48.211Z,58.80
2023-05-05T07:33:33.753Z,59.08
2023-05-05T07:36:19.807Z,58.98
2023-05-05T07:39:05.648Z,58.33
2023-05-05T07:41:51.523Z,58.29
2023-05-05T07:44:37.135Z,58.11
2023-05-05T07:47:22.555Z,57.64
2023-05-05T07:50:08.564Z,57.92
2023-05-05T07:53:02.543Z,57.38
2023-05-05T07:55:55.945Z,56.54
2023-05-05T07:58:42.232Z,56.37
2023-05-05T08:01:28.001Z,55.78
2023-05-05T08:04:13.985Z,56.11
2023-05-05T08:06:59.294Z,55.66
2023-05-05T08:09:44.848Z,55.12
2023-05-05T08:12:30.319Z,55.00
2023-05-05T08:15:16.234Z,55.16
2023-05-05T08:18:01.604Z,55.04
2023-05-05T08:20:47.062Z,54.66
2023-05-05T08:23:33.668Z,54.43
2023-05-05T08:26:19.538Z,54.24
2023-05-05T08:29:05.010Z,54.20
2023-05-05T08:31:50.768Z,53.73
2023-05-05T08:34:35.959Z,53.91
2023-05-05T08:37:21.396Z,53.64
2023-05-05T08:40:07.679Z,53.71
2023-05-05T08:42:54.272Z,53.12
2023-05-05T08:45:42.822Z,52.99
2023-05-05T08:48:29.776Z,53.29
2023-05-05T08:51:19.981Z,53.07
2023-05-05T08:54:10.624Z,52.75
2023-05-05T08:57:01.855Z,52.66
2023-05-05T08:59:49.330Z,52.09
2023-05-05T09:02:35.923Z,52.11
2023-05-05T09:05:21.357Z,52.35
2023-05-05T09:08:09.703Z,51.86
2023-05-05T09:10:55.601Z,51.84
2023-05-05T09:13:47.821Z,51.47
2023-05-05T09:16:33.495Z,51.04
2023-05-05T09:19:19.047Z,51.25
2023-05-05T09:22:04.626Z,50.67
2023-05-05T09:24:56.861Z,50.18
2023-05-05T09:27:47.169Z,50.53
2023-05-05T09:30:34.696Z,50.12
2023-05-05T09:33:29.147Z,47.50
2023-05-05T09:36:15.260Z,49.33
2023-05-05T09:39:06.248Z,49.30
2023-05-05T09:41:51.544Z,49.12
2023-05-05T09:44:38.050Z,48.88
2023-05-05T09:47:35.353Z,47.84
2023-05-05T09:50:23.557Z,48.40
2023-05-05T09:53:10.567Z,48.08
2023-05-05T09:56:05.442Z,46.71
2023-05-05T09:58:50.873Z,47.67
2023-05-05T10:01:36.317Z,47.15
2023-05-05T10:04:29.645Z,46.49
2023-05-05T10:07:24.921Z,45.19
2023-05-05T10:10:13.485Z,46.11
2023-05-05T10:12:59.416Z,46.09
2023-05-05T10:15:46.025Z,45.63
2023-05-05T10:18:32.258Z,45.21
2023-05-05T10:21:20.660Z,44.98
2023-05-05T10:24:26.229Z,42.85
2023-05-05T10:27:20.986Z,43.77
2023-05-05T10:30:08.444Z,44.59
2023-05-05T10:33:14.046Z,44.28
2023-05-05T10:36:06.648Z,44.31
2023-05-05T10:38:56.921Z,43.52
2023-05-05T10:41:42.982Z,43.62
2023-05-05T10:44:31.996Z,43.37
2023-05-05T10:47:18.896Z,43.32
2023-05-05T10:50:09.909Z,42.83
2023-05-05T10:53:13.914Z,42.87
2023-05-05T10:56:26.829Z,39.68
2023-05-05T10:59:37.518Z,38.43
2023-05-05T11:02:29.784Z,41.31
2023-05-05T11:05:18.556Z,41.45
2023-05-05T11:08:27.114Z,39.85
2023-05-05T11:11:13.226Z,41.38
2023-05-05T11:14:19.683Z,38.97
2023-05-05T11:17:04.987Z,41.19
2023-05-05T11:19:52.247Z,40.94
2023-05-05T11:23:10.381Z,37.15
2023-05-05T11:25:57.782Z,40.72
2023-05-05T11:28:58.884Z,38.48
2023-05-05T11:31:44.412Z,40.50
2023-05-05T11:34:29.864Z,40.34
2023-05-05T11:37:18.705Z,40.52
2023-05-05T11:40:18.822Z,38.75
2023-05-05T11:43:06.422Z,40.14
2023-05-05T11:46:09.480Z,36.86
2023-05-05T11:48:54.743Z,40.00
2023-05-05T11:51:40.412Z,39.95
2023-05-05T11:54:26.528Z,39.59
2023-05-05T11:57:12.014Z,39.57
2023-05-05T11:59:59.445Z,39.57
2023-05-05T12:02:45.242Z,39.62
2023-05-05T12:05:32.782Z,39.48
2023-05-05T12:08:19.727Z,39.46
2023-05-05T12:11:10.664Z,38.74
2023-05-05T12:14:10.552Z,37.20
2023-05-05T12:17:04.331Z,37.65
2023-05-05T12:19:55.045Z,38.25
2023-05-05T12:22:41.154Z,38.82
2023-05-05T12:25:34.186Z,38.75
2023-05-05T12:28:20.002Z,38.29
2023-05-05T12:31:05.610Z,38.52
2023-05-05T12:33:51.974Z,38.32
2023-05-05T12:36:38.391Z,38.54
2023-05-05T12:39:34.664Z,36.62
2023-05-05T12:42:20.198Z,38.18
2023-05-05T12:45:15.954Z,38.05
2023-05-05T12:48:01.770Z,38.04
2023-05-05T12:50:47.082Z,38.09
2023-05-05T12:53:32.679Z,38.04
2023-05-05T12:56:37.782Z,36.24
2023-05-05T12:59:23.242Z,37.94
2023-05-05T13:02:08.534Z,37.65
2023-05-05T13:04:54.654Z,37.83
2023-05-05T13:07:52.349Z,36.06
2023-05-05T13:10:40.100Z,33.56
2023-05-05T13:13:25.358Z,37.45
2023-05-05T13:16:10.791Z,37.67
2023-05-05T13:18:57.721Z,37.53
2023-05-05T13:21:43.222Z,34.14
2023-05-05T13:24:42.382Z,37.19
2023-05-05T13:27:37.787Z,37.12
2023-05-05T13:30:23.309Z,37.10
2023-05-05T13:33:08.699Z,36.96
2023-05-05T13:35:54.630Z,37.08
2023-05-05T13:38:40.181Z,36.87
2023-05-05T13:41:25.889Z,37.23
2023-05-05T13:44:12.331Z,37.05
2023-05-05T13:46:58.037Z,36.85
2023-05-05T13:49:43.313Z,36.47
2023-05-05T13:52:29.895Z,36.44
2023-05-05T13:55:17.140Z,36.20
2023-05-05T13:58:02.694Z,35.72
2023-05-05T14:00:48.213Z,35.49
2023-05-05T14:03:33.520Z,35.86
2023-05-05T14:06:19.012Z,35.87
2023-05-05T14:09:06.289Z,35.78
2023-05-05T14:11:51.952Z,35.40
2023-05-05T14:14:37.780Z,35.42
2023-05-05T14:17:23.521Z,35.36
2023-05-05T14:20:09.192Z,35.43
2023-05-05T14:22:54.908Z,34.44
2023-05-05T14:25:40.113Z,35.03
2023-05-05T14:28:25.640Z,34.98
2023-05-05T14:31:11.587Z,35.02
2023-05-05T14:33:56.831Z,34.66
2023-05-05T14:36:42.347Z,34.76
2023-05-05T14:39:27.766Z,34.80
2023-05-05T14:42:13.327Z,34.49
2023-05-05T14:44:58.789Z,34.10
2023-05-05T14:47:44.500Z,34.28
2023-05-05T14:50:30.315Z,34.37
2023-05-05T14:53:15.563Z,34.24
2023-05-05T14:56:02.233Z,34.46
2023-05-05T14:58:49.259Z,34.73
2023-05-05T15:01:35.187Z,34.88
2023-05-05T15:04:20.456Z,34.74
2023-05-05T15:07:05.913Z,34.90
2023-05-05T15:09:51.465Z,35.07
2023-05-05T15:12:36.828Z,35.58
2023-05-05T15:15:22.121Z,35.57
2023-05-05T15:18:07.647Z,36.06
2023-05-05T15:20:53.048Z,36.15
2023-05-05T15:23:38.409Z,35.94
2023-05-05T15:26:24.012Z,36.50
2023-05-05T15:29:09.836Z,36.35
2023-05-05T15:31:55.085Z,36.36
2023-05-05T15:34:40.721Z,36.56
2023-05-05T15:37:28.862Z,37.00
2023-05-05T15:40:14.569Z,37.08
2023-05-05T15:43:00.002Z,36.66
2023-05-05T15:45:45.974Z,36.97
2023-05-05T15:48:31.521Z,37.38
2023-05-05T15:51:17.338Z,37.31
2023-05-05T15:54:02.607Z,37.57
2023-05-05T15:56:48.188Z,37.70
2023-05-05T15:59:34.298Z,37.77
2023-05-05T16:02:21.455Z,37.89
2023-05-05T16:05:08.316Z,38.00
2023-05-05T16:07:54.400Z,38.22
2023-05-05T16:10:39.827Z,38.43
2023-05-05T16:13:25.350Z,38.59
2023-05-05T16:16:11.050Z,38.81
2023-05-05T16:18:56.343Z,38.78
2023-05-05T16:21:41.777Z,39.12
2023-05-05T16:24:27.100Z,38.92
2023-05-05T16:27:12.780Z,39.21
2023-05-05T16:29:59.830Z,39.59
2023-05-05T16:32:45.513Z,39.62
2023-05-05T16:35:30.936Z,39.88
2023-05-05T16:38:16.688Z,40.00
2023-05-05T16:41:02.305Z,40.20
2023-05-05T16:43:47.798Z,40.39
2023-05-05T16:46:37.295Z,40.46
2023-05-05T16:49:24.303Z,40.73
2023-05-05T16:52:09.728Z,40.79
2023-05-05T16:54:55.901Z,40.85
2023-05-05T16:57:41.283Z,40.64
2023-05-05T17:00:26.650Z,40.73
2023-05-05T17:03:12.722Z,40.67
2023-05-05T17:05:58.698Z,40.63
2023-05-05T17:08:44.229Z,40.83
2023-05-05T17:11:29.636Z,41.00
2023-05-05T17:14:15.324Z,41.13
2023-05-05T17:17:00.727Z,41.45
2023-05-05T17:19:46.315Z,41.36
2023-05-05T17:22:32.097Z,41.91
2023-05-05T17:25:17.796Z,42.32
2023-05-05T17:28:03.268Z,42.78
2023-05-05T17:30:48.787Z,43.36
2023-05-05T17:33:34.354Z,43.43
2023-05-05T17:36:19.877Z,43.85
2023-05-05T17:39:06.185Z,44.06
2023-05-05T17:41:52.096Z,44.39
2023-05-05T17:44:37.589Z,44.85
2023-05-05T17:47:24.263Z,45.01
2023-05-05T17:50:11.145Z,45.24
2023-05-05T17:52:56.573Z,45.74
2023-05-05T17:55:46.030Z,46.04
2023-05-05T17:58:31.619Z,46.19
2023-05-05T18:01:24.689Z,47.25
2023-05-05T18:04:10.264Z,47.06
2023-05-05T18:06:56.174Z,47.06
2023-05-05T18:09:41.949Z,47.71
2023-05-05T18:12:27.431Z,47.99
2023-05-05T18:15:13.158Z,48.32
2023-05-05T18:17:58.977Z,48.42
2023-05-05T18:20:44.434Z,49.17
2023-05-05T18:23:29.890Z,49.35
2023-05-05T18:26:15.593Z,49.80
2023-05-05T18:29:01.337Z,49.56
2023-05-05T18:31:53.062Z,49.62
2023-05-05T18:34:38.726Z,50.01
2023-05-05T18:37:24.204Z,49.98
2023-05-05T18:40:10.180Z,50.52
2023-05-05T18:42:55.803Z,50.50
2023-05-05T18:45:41.871Z,51.05
2023-05-05T18:48:27.859Z,51.54
2023-05-05T18:51:13.229Z,51.70
2023-05-05T18:53:58.535Z,51.60
2023-05-05T18:56:43.760Z,51.73
2023-05-05T18:59:29.214Z,52.07
2023-05-05T19:02:14.940Z,52.02
2023-05-05T19:05:00.345Z,52.25
2023-05-05T19:07:45.823Z,52.37
2023-05-05T19:10:31.478Z,52.74
2023-05-05T19:13:17.117Z,52.82
2023-05-05T19:16:02.862Z,53.08
2023-05-05T19:18:48.196Z,53.49
2023-05-05T19:21:33.394Z,53.71
2023-05-05T19:24:18.862Z,54.03
2023-05-05T19:27:04.388Z,53.79
2023-05-05T19:29:52.385Z,54.04
2023-05-05T19:32:38.176Z,54.52
2023-05-05T19:35:23.640Z,54.27
2023-05-05T19:38:12.832Z,54.83
2023-05-05T19:40:58.493Z,54.03
2023-05-05T19:43:46.368Z,54.24
2023-05-05T19:46:32.173Z,54.22
2023-05-05T19:49:17.897Z,54.53
2023-05-05T19:52:03.846Z,54.29
2023-05-05T19:54:50.042Z,54.37
2023-05-05T19:57:35.892Z,54.96
2023-05-05T20:00:21.690Z,54.73
2023-05-05T20:03:07.136Z,55.05
2023-05-05T20:05:52.895Z,55.42
2023-05-05T20:08:52.366Z,55.45
2023-05-05T20:11:38.287Z,55.94
2023-05-05T20:14:23.534Z,55.82
2023-05-05T20:17:09.190Z,56.53
2023-05-05T20:19:54.581Z,56.87
2023-05-05T20:22:40.795Z,55.86
2023-05-05T20:25:26.949Z,56.87
2023-05-05T20:28:13.808Z,57.03
2023-05-05T20:31:00.798Z,56.73
2023-05-05T20:33:46.613Z,56.98
2023-05-05T20:36:32.643Z,56.93
2023-05-05T20:39:18.545Z,57.13
2023-05-05T20:42:04.013Z,57.04
2023-05-05T20:44:49.317Z,56.76
2023-05-05T20:47:35.509Z,57.51
2023-05-05T20:50:20.702Z,57.57
2023-05-05T20:53:10.993Z,57.75
2023-05-05T20:55:56.661Z,57.86
2023-05-05T20:58:42.363Z,57.68
2023-05-05T21:01:28.631Z,58.19
2023-05-05T21:04:14.715Z,58.42
2023-05-05T21:07:00.123Z,58.65
2023-05-05T21:09:46.789Z,59.42
2023-05-05T21:12:34.280Z,59.34
2023-05-05T21:15:20.033Z,61.67
2023-05-05T21:18:05.750Z,59.93
2023-05-05T21:20:51.568Z,59.94
2023-05-05T21:23:37.200Z,60.29
2023-05-05T21:26:22.636Z,59.98
2023-05-05T21:29:07.918Z,59.67
2023-05-05T21:31:53.484Z,59.37
2023-05-05T21:34:39.683Z,59.89
2023-05-05T21:37:25.389Z,60.29
2023-05-05T21:40:13.748Z,60.10
2023-05-05T21:42:59.172Z,60.04
2023-05-05T21:45:44.576Z,60.14
2023-05-05T21:48:31.389Z,60.81
2023-05-05T21:51:17.413Z,60.51
2023-05-05T21:54:02.770Z,61.19
2023-05-05T21:56:48.210Z,60.85
2023-05-05T21:59:34.702Z,60.75
2023-05-05T22:02:20.241Z,60.63
2023-05-05T22:05:06.040Z,61.24
2023-05-05T22:07:51.388Z,61.47
2023-05-05T22:10:36.717Z,61.77
2023-05-05T22:13:22.044Z,61.14
2023-05-05T22:16:09.046Z,61.51
2023-05-05T22:18:54.212Z,62.17
2023-05-05T22:21:39.581Z,63.31
2023-05-05T22:24:25.203Z,63.92
2023-05-05T22:27:10.798Z,62.80
2023-05-05T22:29:56.360Z,62.58
2023-05-05T22:32:43.470Z,62.55
2023-05-05T22:35:28.969Z,62.30
2023-05-05T22:38:15.053Z,62.09
2023-05-05T22:41:01.010Z,62.93
2023-05-05T22:43:47.420Z,62.46
2023-05-05T22:46:33.349Z,63.25
2023-05-05T22:49:18.709Z,62.82
2023-05-05T22:52:04.356Z,62.68
2023-05-05T22:54:50.001Z,63.15
2023-05-05T22:57:36.295Z,63.34
2023-05-05T23:00:22.850Z,64.01
2023-05-05T23:03:08.264Z,64.26
2023-05-05T23:05:53.869Z,64.42
2023-05-05T23:08:39.383Z,64.97
2023-05-05T23:11:25.959Z,64.55
2023-05-05T23:14:11.538Z,64.69
2023-05-05T23:16:57.122Z,65.18
2023-05-05T23:19:42.565Z,65.79
2023-05-05T23:22:28.097Z,64.77
2023-05-05T23:25:13.533Z,65.49
2023-05-05T23:27:59.380Z,65.84
2023-05-05T23:30:45.071Z,66.73
2023-05-05T23:33:30.624Z,67.13
2023-05-05T23:36:16.172Z,67.60
2023-05-05T23:39:02.230Z,67.55
2023-05-05T23:41:47.847Z,66.85
2023-05-05T23:44:33.445Z,67.36
2023-05-05T23:47:19.063Z,67.33
2023-05-05T23:50:04.794Z,66.96
2023-05-05T23:52:50.769Z,68.25
2023-05-05T23:55:36.544Z,68.16
2023-05-05T23:58:22.037Z,68.30
